logo
Rechercher aéroport 
image banner adimage banner adimage banner ad
image banner ad

LOMW - Wolfsberg Lkh

Situé à District Wolfsberg, Austria

ICAO - , IATA -

Données fournies par Airmate  

Information générale

Coordonnées: N46°49'57" E14°50'53"
Élévation : 1575 feet MSL.
 
Voir autres Aéroports à Carinthia

Données opérationnelles

Special qualification required
Heure actuelle UTC:
Heure actuelle locale:
Météo à : LOXZ - Zeltweg ( 42 km )
METAR: LOXZ 241120Z 29012KT 9999 FEW065 BKN250 23/11 Q1018 NOSIG
TAF: TAF COR LOXZ 241115Z 2412/2421 32015G25KT 9999 SCT060 BKN250 BECMG 2416/2418 VRB03KT FEW060
Voir NOTAMs / SUP AIP / TFR affectant cet aéroport [VIEW]
Fréquences de communication: [VIEW]

Pistes:

Coordonnées de l'aéroport

Adresse: District Wolfsberg Austria

Vue satellite de LOMW